sensor_id;sensor_type;location;lat;lon;timestamp;pressure;altitude;pressure_sealevel;temperature;humidity
4167;BME280;2097;51.104;7.150;2023-02-26T00:00:27;98760.28;;;-2.02;91.85
4167;BME280;2097;51.104;7.150;2023-02-26T00:02:54;98763.66;;;-2.01;91.97
4167;BME280;2097;51.104;7.150;2023-02-26T00:05:20;98765.31;;;-1.99;92.30
4167;BME280;2097;51.104;7.150;2023-02-26T00:07:47;98765.31;;;-1.99;91.96
4167;BME280;2097;51.104;7.150;2023-02-26T00:10:14;98771.19;;;-1.92;92.45
4167;BME280;2097;51.104;7.150;2023-02-26T00:12:44;98564.03;;;-3.18;92.45
4167;BME280;2097;51.104;7.150;2023-02-26T00:15:12;98784.63;;;-1.81;92.15
4167;BME280;2097;51.104;7.150;2023-02-26T00:17:46;98556.47;;;-3.19;92.57
4167;BME280;2097;51.104;7.150;2023-02-26T00:20:15;98792.19;;;-1.71;92.60
4167;BME280;2097;51.104;7.150;2023-02-26T00:22:43;98659.84;;;-2.43;92.77
4167;BME280;2097;51.104;7.150;2023-02-26T00:25:10;98692.63;;;-2.15;92.29
4167;BME280;2097;51.104;7.150;2023-02-26T00:27:37;98802.06;;;-1.44;91.73
4167;BME280;2097;51.104;7.150;2023-02-26T00:30:07;98823.13;;;-1.31;92.37
4167;BME280;2097;51.104;7.150;2023-02-26T00:32:35;98636.03;;;-2.30;91.39
4167;BME280;2097;51.104;7.150;2023-02-26T00:35:04;98814.47;;;-1.15;91.97
4167;BME280;2097;51.104;7.150;2023-02-26T00:37:42;98822.00;;;-1.07;92.02
4167;BME280;2097;51.104;7.150;2023-02-26T00:40:22;98675.44;;;-1.92;92.12
4167;BME280;2097;51.104;7.150;2023-02-26T00:42:52;98821.06;;;-1.00;92.03
4167;BME280;2097;51.104;7.150;2023-02-26T00:45:21;98659.50;;;-2.07;91.93
4167;BME280;2097;51.104;7.150;2023-02-26T00:47:51;98835.53;;;-1.05;92.42
4167;BME280;2097;51.104;7.150;2023-02-26T00:50:23;98823.78;;;-1.13;92.01
4167;BME280;2097;51.104;7.150;2023-02-26T00:52:58;98823.88;;;-1.20;92.68
4167;BME280;2097;51.104;7.150;2023-02-26T00:55:28;98722.06;;;-1.94;92.57
4167;BME280;2097;51.104;7.150;2023-02-26T00:57:55;98757.47;;;-1.76;92.81
4167;BME280;2097;51.104;7.150;2023-02-26T01:00:26;98829.19;;;-1.43;93.71
4167;BME280;2097;51.104;7.150;2023-02-26T01:02:53;98832.69;;;-1.53;93.20
4167;BME280;2097;51.104;7.150;2023-02-26T01:05:21;98838.75;;;-1.67;94.45
4167;BME280;2097;51.104;7.150;2023-02-26T01:07:55;98837.16;;;-1.77;94.63
4167;BME280;2097;51.104;7.150;2023-02-26T01:10:25;98842.25;;;-1.80;94.30
4167;BME280;2097;51.104;7.150;2023-02-26T01:12:52;98849.94;;;-1.85;94.15
4167;BME280;2097;51.104;7.150;2023-02-26T01:15:21;98851.66;;;-1.88;94.55
4167;BME280;2097;51.104;7.150;2023-02-26T01:17:52;98849.16;;;-1.91;94.43
4167;BME280;2097;51.104;7.150;2023-02-26T01:20:22;98780.00;;;-2.33;94.88
4167;BME280;2097;51.104;7.150;2023-02-26T01:22:53;98577.03;;;-3.64;94.35
4167;BME280;2097;51.104;7.150;2023-02-26T01:25:24;98859.34;;;-1.97;94.65
4167;BME280;2097;51.104;7.150;2023-02-26T01:27:54;98852.59;;;-2.01;95.27
4167;BME280;2097;51.104;7.150;2023-02-26T01:30:23;98853.47;;;-2.02;95.09
4167;BME280;2097;51.104;7.150;2023-02-26T01:32:56;98775.81;;;-2.39;95.23
4167;BME280;2097;51.104;7.150;2023-02-26T01:35:40;98838.19;;;-1.99;95.08
4167;BME280;2097;51.104;7.150;2023-02-26T01:38:15;98767.34;;;-2.38;94.96
4167;BME280;2097;51.104;7.150;2023-02-26T01:43:44;98833.03;;;-1.92;94.91
4167;BME280;2097;51.104;7.150;2023-02-26T01:46:15;98835.56;;;-1.87;95.54
4167;BME280;2097;51.104;7.150;2023-02-26T01:48:48;98784.09;;;-2.15;95.43
4167;BME280;2097;51.104;7.150;2023-02-26T01:51:16;98840.53;;;-1.75;94.82
4167;BME280;2097;51.104;7.150;2023-02-26T01:53:44;98773.06;;;-2.15;95.01
4167;BME280;2097;51.104;7.150;2023-02-26T01:56:13;98848.16;;;-1.74;95.03
4167;BME280;2097;51.104;7.150;2023-02-26T01:58:41;98860.88;;;-1.78;95.01
4167;BME280;2097;51.104;7.150;2023-02-26T02:01:10;98473.47;;;-4.13;95.21
4167;BME280;2097;51.104;7.150;2023-02-26T02:03:38;98866.09;;;-1.93;95.38
4167;BME280;2097;51.104;7.150;2023-02-26T02:06:09;98857.66;;;-1.98;96.47
4167;BME280;2097;51.104;7.150;2023-02-26T02:08:39;98865.34;;;-2.03;95.86
4167;BME280;2097;51.104;7.150;2023-02-26T02:11:09;98824.84;;;-2.25;96.09
4167;BME280;2097;51.104;7.150;2023-02-26T02:13:45;98553.53;;;-3.90;95.83
4167;BME280;2097;51.104;7.150;2023-02-26T02:16:20;98863.66;;;-2.07;96.17
4167;BME280;2097;51.104;7.150;2023-02-26T02:18:55;98864.50;;;-2.06;96.47
4167;BME280;2097;51.104;7.150;2023-02-26T02:21:40;98804.66;;;-2.49;96.60
4167;BME280;2097;51.104;7.150;2023-02-26T02:24:12;98871.28;;;-2.08;96.97
4167;BME280;2097;51.104;7.150;2023-02-26T02:27:01;98815.63;;;-2.44;96.47
4167;BME280;2097;51.104;7.150;2023-02-26T02:30:03;98870.44;;;-2.10;96.74
4167;BME280;2097;51.104;7.150;2023-02-26T02:32:38;98764.25;;;-2.77;96.12
4167;BME280;2097;51.104;7.150;2023-02-26T02:35:13;98874.72;;;-2.15;96.56
4167;BME280;2097;51.104;7.150;2023-02-26T02:37:45;98879.00;;;-2.22;96.14
4167;BME280;2097;51.104;7.150;2023-02-26T02:40:18;98782.91;;;-2.87;96.71
4167;BME280;2097;51.104;7.150;2023-02-26T02:42:50;98892.59;;;-2.31;97.09
4167;BME280;2097;51.104;7.150;2023-02-26T02:45:21;98824.28;;;-2.72;96.50
4167;BME280;2097;51.104;7.150;2023-02-26T02:47:54;98886.72;;;-2.38;97.19
4167;BME280;2097;51.104;7.150;2023-02-26T02:50:27;98889.31;;;-2.42;97.24
4167;BME280;2097;51.104;7.150;2023-02-26T02:52:59;98894.41;;;-2.45;97.36
4167;BME280;2097;51.104;7.150;2023-02-26T02:55:29;98910.50;;;-2.51;97.69
4167;BME280;2097;51.104;7.150;2023-02-26T02:58:00;98888.47;;;-2.49;96.94
4167;BME280;2097;51.104;7.150;2023-02-26T03:00:30;98835.38;;;-2.89;96.94
4167;BME280;2097;51.104;7.150;2023-02-26T03:03:04;98829.41;;;-2.84;96.92
4167;BME280;2097;51.104;7.150;2023-02-26T03:05:33;98902.00;;;-2.47;97.05
4167;BME280;2097;51.104;7.150;2023-02-26T03:08:04;98897.78;;;-2.51;96.52
4167;BME280;2097;51.104;7.150;2023-02-26T03:10:32;98910.53;;;-2.57;97.36
4167;BME280;2097;51.104;7.150;2023-02-26T03:12:59;98810.97;;;-3.25;97.31
4167;BME280;2097;51.104;7.150;2023-02-26T03:15:36;98913.94;;;-2.64;97.38
4167;BME280;2097;51.104;7.150;2023-02-26T03:18:13;98886.09;;;-2.83;97.28
4167;BME280;2097;51.104;7.150;2023-02-26T03:20:51;98862.47;;;-3.00;97.13
4167;BME280;2097;51.104;7.150;2023-02-26T03:23:30;98751.09;;;-3.66;96.98
4167;BME280;2097;51.104;7.150;2023-02-26T03:26:02;98853.19;;;-3.00;97.09
4167;BME280;2097;51.104;7.150;2023-02-26T03:28:38;98853.19;;;-3.06;97.39
4167;BME280;2097;51.104;7.150;2023-02-26T03:31:09;98824.50;;;-3.26;97.13
4167;BME280;2097;51.104;7.150;2023-02-26T03:33:47;98935.09;;;-2.66;97.19
4167;BME280;2097;51.104;7.150;2023-02-26T03:36:19;98937.66;;;-2.65;97.47
4167;BME280;2097;51.104;7.150;2023-02-26T03:38:51;98939.34;;;-2.65;97.19
4167;BME280;2097;51.104;7.150;2023-02-26T03:41:26;98944.41;;;-2.64;97.33
4167;BME280;2097;51.104;7.150;2023-02-26T03:43:58;98945.25;;;-2.60;97.28
4167;BME280;2097;51.104;7.150;2023-02-26T03:46:32;98959.63;;;-2.58;96.95
4167;BME280;2097;51.104;7.150;2023-02-26T03:49:06;98957.91;;;-2.48;97.37
4167;BME280;2097;51.104;7.150;2023-02-26T03:51:35;98953.66;;;-2.40;97.47
4167;BME280;2097;51.104;7.150;2023-02-26T03:54:07;98961.25;;;-2.39;96.51
4167;BME280;2097;51.104;7.150;2023-02-26T03:56:39;98792.44;;;-3.47;96.88
4167;BME280;2097;51.104;7.150;2023-02-26T03:59:07;98962.13;;;-2.47;96.88
4167;BME280;2097;51.104;7.150;2023-02-26T04:01:39;98974.00;;;-2.54;96.95
4167;BME280;2097;51.104;7.150;2023-02-26T04:04:11;98899.69;;;-2.98;97.81
4167;BME280;2097;51.104;7.150;2023-02-26T04:06:41;98962.19;;;-2.64;97.63
4167;BME280;2097;51.104;7.150;2023-02-26T04:09:09;98908.16;;;-3.09;97.68
4167;BME280;2097;51.104;7.150;2023-02-26T04:11:36;98968.13;;;-2.71;97.47
4167;BME280;2097;51.104;7.150;2023-02-26T04:14:04;98963.06;;;-2.74;98.02
4167;BME280;2097;51.104;7.150;2023-02-26T04:16:30;98881.97;;;-3.25;97.92
4167;BME280;2097;51.104;7.150;2023-02-26T04:18:57;98953.81;;;-2.96;98.46
4167;BME280;2097;51.104;7.150;2023-02-26T04:21:26;98963.09;;;-2.86;97.86
4167;BME280;2097;51.104;7.150;2023-02-26T04:23:53;98967.34;;;-2.89;98.68
4167;BME280;2097;51.104;7.150;2023-02-26T04:26:20;98969.03;;;-2.85;98.13
4167;BME280;2097;51.104;7.150;2023-02-26T04:28:47;98980.00;;;-2.85;98.54
4167;BME280;2097;51.104;7.150;2023-02-26T04:31:13;98981.69;;;-2.90;98.55
4167;BME280;2097;51.104;7.150;2023-02-26T04:33:41;98981.69;;;-2.90;98.59
4167;BME280;2097;51.104;7.150;2023-02-26T04:36:08;98985.09;;;-2.88;98.12
4167;BME280;2097;51.104;7.150;2023-02-26T04:38:36;98893.88;;;-3.52;97.66
4167;BME280;2097;51.104;7.150;2023-02-26T04:41:04;98991.03;;;-2.96;98.28
4167;BME280;2097;51.104;7.150;2023-02-26T04:43:31;98995.28;;;-2.97;98.36
4167;BME280;2097;51.104;7.150;2023-02-26T04:45:58;98996.13;;;-2.95;98.51
4167;BME280;2097;51.104;7.150;2023-02-26T04:48:25;99002.88;;;-2.95;98.25
4167;BME280;2097;51.104;7.150;2023-02-26T04:50:52;98998.66;;;-2.98;98.40
4167;BME280;2097;51.104;7.150;2023-02-26T04:53:18;99009.66;;;-2.94;98.04
4167;BME280;2097;51.104;7.150;2023-02-26T04:55:48;99010.50;;;-2.97;98.49
4167;BME280;2097;51.104;7.150;2023-02-26T04:58:15;98843.22;;;-4.01;98.08
4167;BME280;2097;51.104;7.150;2023-02-26T05:00:42;99013.88;;;-3.04;98.23
4167;BME280;2097;51.104;7.150;2023-02-26T05:03:09;99020.63;;;-3.01;99.00
4167;BME280;2097;51.104;7.150;2023-02-26T05:05:37;99020.66;;;-3.00;98.77
4167;BME280;2097;51.104;7.150;2023-02-26T05:08:04;99026.56;;;-3.01;97.86
4167;BME280;2097;51.104;7.150;2023-02-26T05:10:31;98929.38;;;-3.65;98.50
4167;BME280;2097;51.104;7.150;2023-02-26T05:12:59;98917.56;;;-3.72;98.45
4167;BME280;2097;51.104;7.150;2023-02-26T05:15:26;99035.88;;;-3.15;98.97
4167;BME280;2097;51.104;7.150;2023-02-26T05:17:53;99029.94;;;-3.17;99.33
4167;BME280;2097;51.104;7.150;2023-02-26T05:20:20;99034.19;;;-3.16;99.01
4167;BME280;2097;51.104;7.150;2023-02-26T05:22:46;99044.34;;;-3.04;98.84
4167;BME280;2097;51.104;7.150;2023-02-26T05:25:13;99044.34;;;-3.01;98.19
4167;BME280;2097;51.104;7.150;2023-02-26T05:27:41;99039.25;;;-3.01;98.55
4167;BME280;2097;51.104;7.150;2023-02-26T05:30:13;99043.47;;;-3.04;98.83
4167;BME280;2097;51.104;7.150;2023-02-26T05:32:40;98861.75;;;-4.19;98.76
4167;BME280;2097;51.104;7.150;2023-02-26T05:35:07;99057.88;;;-3.02;98.97
4167;BME280;2097;51.104;7.150;2023-02-26T05:37:34;99060.41;;;-2.88;99.17
4167;BME280;2097;51.104;7.150;2023-02-26T05:40:03;99065.44;;;-2.70;98.96
4167;BME280;2097;51.104;7.150;2023-02-26T05:42:30;99056.16;;;-2.67;98.63
4167;BME280;2097;51.104;7.150;2023-02-26T05:44:56;99076.41;;;-2.52;97.91
4167;BME280;2097;51.104;7.150;2023-02-26T05:47:25;99066.25;;;-2.52;98.03
4167;BME280;2097;51.104;7.150;2023-02-26T05:49:51;99067.13;;;-2.57;97.88
4167;BME280;2097;51.104;7.150;2023-02-26T05:52:18;99068.81;;;-2.68;98.41
4167;BME280;2097;51.104;7.150;2023-02-26T05:54:45;99035.88;;;-3.03;98.72
4167;BME280;2097;51.104;7.150;2023-02-26T05:57:12;99079.84;;;-2.86;99.16
4167;BME280;2097;51.104;7.150;2023-02-26T05:59:39;99080.72;;;-2.85;98.89
4167;BME280;2097;51.104;7.150;2023-02-26T06:02:06;99080.69;;;-2.84;99.04
4167;BME280;2097;51.104;7.150;2023-02-26T06:04:34;98840.66;;;-4.30;99.08
4167;BME280;2097;51.104;7.150;2023-02-26T06:07:01;99084.94;;;-2.90;98.93
4167;BME280;2097;51.104;7.150;2023-02-26T06:09:28;99096.78;;;-2.97;99.26
4167;BME280;2097;51.104;7.150;2023-02-26T06:11:55;99097.63;;;-3.04;99.02
4167;BME280;2097;51.104;7.150;2023-02-26T06:14:22;99111.16;;;-3.11;99.47
4167;BME280;2097;51.104;7.150;2023-02-26T06:16:49;99104.38;;;-3.16;99.83
4167;BME280;2097;51.104;7.150;2023-02-26T06:19:16;99105.22;;;-3.19;100.00
4167;BME280;2097;51.104;7.150;2023-02-26T06:21:44;99116.22;;;-3.21;99.88
4167;BME280;2097;51.104;7.150;2023-02-26T06:24:11;99117.91;;;-3.19;100.00
4167;BME280;2097;51.104;7.150;2023-02-26T06:26:38;99126.34;;;-3.17;99.68
4167;BME280;2097;51.104;7.150;2023-02-26T06:29:05;98554.38;;;-6.63;98.78
4167;BME280;2097;51.104;7.150;2023-02-26T06:31:32;99122.97;;;-3.05;99.80
4167;BME280;2097;51.104;7.150;2023-02-26T06:33:59;99133.16;;;-3.01;99.51
4167;BME280;2097;51.104;7.150;2023-02-26T06:36:27;99134.84;;;-2.98;99.61
4167;BME280;2097;51.104;7.150;2023-02-26T06:38:55;98697.00;;;-5.68;98.84
4167;BME280;2097;51.104;7.150;2023-02-26T06:41:22;99139.91;;;-3.01;99.24
4167;BME280;2097;51.104;7.150;2023-02-26T06:43:49;99153.44;;;-3.02;99.57
4167;BME280;2097;51.104;7.150;2023-02-26T06:46:16;99146.69;;;-2.99;99.95
4167;BME280;2097;51.104;7.150;2023-02-26T06:48:43;99159.38;;;-2.97;99.45
4167;BME280;2097;51.104;7.150;2023-02-26T06:51:10;98837.16;;;-4.82;98.94
4167;BME280;2097;51.104;7.150;2023-02-26T06:53:36;98826.13;;;-5.07;98.62
4167;BME280;2097;51.104;7.150;2023-02-26T06:56:05;99168.72;;;-2.81;98.94
4167;BME280;2097;51.104;7.150;2023-02-26T06:58:32;98436.38;;;-7.25;98.50
4167;BME280;2097;51.104;7.150;2023-02-26T07:00:59;99003.69;;;-3.81;99.38
4167;BME280;2097;51.104;7.150;2023-02-26T07:03:26;98454.13;;;-7.07;98.68
4167;BME280;2097;51.104;7.150;2023-02-26T07:05:54;99018.06;;;-3.88;98.81
4167;BME280;2097;51.104;7.150;2023-02-26T07:08:21;98872.66;;;-4.66;98.65
4167;BME280;2097;51.104;7.150;2023-02-26T07:10:48;99054.41;;;-3.63;98.86
4167;BME280;2097;51.104;7.150;2023-02-26T07:13:17;98852.25;;;-5.11;99.38
4167;BME280;2097;51.104;7.150;2023-02-26T07:15:44;99152.59;;;-3.09;99.31
4167;BME280;2097;51.104;7.150;2023-02-26T07:18:10;99200.03;;;-2.76;99.42
4167;BME280;2097;51.104;7.150;2023-02-26T07:20:37;99224.56;;;-2.63;99.57
4167;BME280;2097;51.104;7.150;2023-02-26T07:23:04;99227.13;;;-2.59;99.32
4167;BME280;2097;51.104;7.150;2023-02-26T07:25:31;99230.50;;;-2.54;98.67
4167;BME280;2097;51.104;7.150;2023-02-26T07:27:58;99199.19;;;-2.68;99.25
4167;BME280;2097;51.104;7.150;2023-02-26T07:30:26;99231.34;;;-2.46;99.44
4167;BME280;2097;51.104;7.150;2023-02-26T07:32:53;99250.84;;;-2.40;99.00
4167;BME280;2097;51.104;7.150;2023-02-26T07:35:20;99185.66;;;-2.74;99.13
4167;BME280;2097;51.104;7.150;2023-02-26T07:37:47;99261.84;;;-2.31;99.06
4167;BME280;2097;51.104;7.150;2023-02-26T07:40:14;99264.41;;;-2.28;98.58
4167;BME280;2097;51.104;7.150;2023-02-26T07:42:41;99208.50;;;-2.61;98.89
4167;BME280;2097;51.104;7.150;2023-02-26T07:45:09;99264.41;;;-2.19;98.96
4167;BME280;2097;51.104;7.150;2023-02-26T07:47:37;99279.63;;;-2.07;98.70
4167;BME280;2097;51.104;7.150;2023-02-26T07:50:05;99284.72;;;-2.07;98.50
4167;BME280;2097;51.104;7.150;2023-02-26T07:52:32;98729.13;;;-5.25;98.50
4167;BME280;2097;51.104;7.150;2023-02-26T07:54:58;98876.06;;;-4.48;98.09
4167;BME280;2097;51.104;7.150;2023-02-26T07:57:25;99108.63;;;-2.96;98.40
4167;BME280;2097;51.104;7.150;2023-02-26T07:59:58;98649.03;;;-5.61;98.28
4167;BME280;2097;51.104;7.150;2023-02-26T08:02:25;99291.50;;;-1.85;98.47
4167;BME280;2097;51.104;7.150;2023-02-26T08:04:54;98675.16;;;-5.44;98.17
4167;BME280;2097;51.104;7.150;2023-02-26T08:07:21;99287.25;;;-1.82;98.29
4167;BME280;2097;51.104;7.150;2023-02-26T08:09:48;99049.41;;;-3.19;98.55
4167;BME280;2097;51.104;7.150;2023-02-26T08:12:15;99297.41;;;-1.73;98.42
4167;BME280;2097;51.104;7.150;2023-02-26T08:14:42;98898.09;;;-4.08;98.50
4167;BME280;2097;51.104;7.150;2023-02-26T08:17:09;98991.06;;;-3.45;98.26
4167;BME280;2097;51.104;7.150;2023-02-26T08:19:35;99301.59;;;-1.60;98.84
4167;BME280;2097;51.104;7.150;2023-02-26T08:22:04;99299.91;;;-1.53;98.27
4167;BME280;2097;51.104;7.150;2023-02-26T08:24:30;99305.00;;;-1.52;98.24
4167;BME280;2097;51.104;7.150;2023-02-26T08:26:59;99000.34;;;-3.24;97.65
4167;BME280;2097;51.104;7.150;2023-02-26T08:29:25;99303.25;;;-1.39;97.54
4167;BME280;2097;51.104;7.150;2023-02-26T08:31:52;98910.78;;;-3.76;98.01
4167;BME280;2097;51.104;7.150;2023-02-26T08:34:22;99309.19;;;-1.25;97.42
4167;BME280;2097;51.104;7.150;2023-02-26T08:36:49;99316.78;;;-1.19;98.47
4167;BME280;2097;51.104;7.150;2023-02-26T08:39:17;99317.63;;;-1.13;97.54
4167;BME280;2097;51.104;7.150;2023-02-26T08:41:44;98441.84;;;-6.17;97.00
4167;BME280;2097;51.104;7.150;2023-02-26T08:44:11;99323.50;;;-1.01;97.61
4167;BME280;2097;51.104;7.150;2023-02-26T08:46:38;99186.34;;;-1.72;97.70
4167;BME280;2097;51.104;7.150;2023-02-26T08:49:04;99233.78;;;-1.50;97.68
4167;BME280;2097;51.104;7.150;2023-02-26T08:51:31;99191.44;;;-1.71;97.45
4167;BME280;2097;51.104;7.150;2023-02-26T08:53:58;99331.94;;;-0.84;97.87
4167;BME280;2097;51.104;7.150;2023-02-26T08:56:27;99333.59;;;-0.78;96.72
4167;BME280;2097;51.104;7.150;2023-02-26T08:58:54;99344.63;;;-0.73;96.86
4167;BME280;2097;51.104;7.150;2023-02-26T09:01:20;99212.53;;;-1.42;96.46
4167;BME280;2097;51.104;7.150;2023-02-26T09:03:47;99336.06;;;-0.62;97.25
4167;BME280;2097;51.104;7.150;2023-02-26T09:06:14;99259.94;;;-1.13;96.58
4167;BME280;2097;51.104;7.150;2023-02-26T09:08:41;99352.13;;;-0.45;96.79
4167;BME280;2097;51.104;7.150;2023-02-26T09:11:08;99350.38;;;-0.38;96.13
4167;BME280;2097;51.104;7.150;2023-02-26T09:13:37;99361.41;;;-0.35;95.48
4167;BME280;2097;51.104;7.150;2023-02-26T09:16:04;99257.25;;;-0.89;95.54
4167;BME280;2097;51.104;7.150;2023-02-26T09:18:31;99364.75;;;-0.24;96.14
4167;BME280;2097;51.104;7.150;2023-02-26T09:20:58;99362.19;;;-0.19;94.96
4167;BME280;2097;51.104;7.150;2023-02-26T09:23:25;99370.66;;;-0.16;94.83
4167;BME280;2097;51.104;7.150;2023-02-26T09:25:52;99374.03;;;-0.11;95.35
4167;BME280;2097;51.104;7.150;2023-02-26T09:28:20;99290.16;;;-0.53;95.46
4167;BME280;2097;51.104;7.150;2023-02-26T09:30:51;99282.50;;;-0.51;95.14
4167;BME280;2097;51.104;7.150;2023-02-26T09:33:18;99389.13;;;0.16;94.25
4167;BME280;2097;51.104;7.150;2023-02-26T09:35:47;99392.47;;;0.24;94.14
4167;BME280;2097;51.104;7.150;2023-02-26T09:38:13;99386.50;;;0.26;94.40
4167;BME280;2097;51.104;7.150;2023-02-26T09:40:43;99246.06;;;-0.64;94.14
4167;BME280;2097;51.104;7.150;2023-02-26T09:43:39;99398.34;;;0.35;93.06
4167;BME280;2097;51.104;7.150;2023-02-26T09:46:23;99401.63;;;0.50;93.33
4167;BME280;2097;51.104;7.150;2023-02-26T09:48:57;99412.59;;;0.60;92.95
4167;BME280;2097;51.104;7.150;2023-02-26T09:51:26;99266.97;;;-0.17;92.71
4167;BME280;2097;51.104;7.150;2023-02-26T09:53:53;99393.91;;;0.55;91.96
4167;BME280;2097;51.104;7.150;2023-02-26T09:56:23;98768.59;;;-2.99;91.61
4167;BME280;2097;51.104;7.150;2023-02-26T09:58:50;99265.88;;;0.08;91.63
4167;BME280;2097;51.104;7.150;2023-02-26T10:01:25;99196.47;;;-0.24;91.15
4167;BME280;2097;51.104;7.150;2023-02-26T10:04:06;99155.88;;;-0.46;91.07
4167;BME280;2097;51.104;7.150;2023-02-26T10:06:40;98878.22;;;-2.31;91.00
4167;BME280;2097;51.104;7.150;2023-02-26T10:09:34;99431.56;;;1.23;91.44
4167;BME280;2097;51.104;7.150;2023-02-26T10:12:06;99302.03;;;0.55;90.48
4167;BME280;2097;51.104;7.150;2023-02-26T10:14:38;99439.13;;;1.31;90.54
4167;BME280;2097;51.104;7.150;2023-02-26T10:17:17;99376.59;;;0.88;89.97
4167;BME280;2097;51.104;7.150;2023-02-26T10:19:50;99402.03;;;0.99;90.21
4167;BME280;2097;51.104;7.150;2023-02-26T10:22:25;99449.47;;;1.22;90.46
4167;BME280;2097;51.104;7.150;2023-02-26T10:24:59;99451.19;;;1.18;90.05
4167;BME280;2097;51.104;7.150;2023-02-26T10:27:38;99461.41;;;1.21;89.51
4167;BME280;2097;51.104;7.150;2023-02-26T10:30:12;99375.72;;;0.89;89.68
4167;BME280;2097;51.104;7.150;2023-02-26T10:32:51;99424.81;;;1.16;89.21
4167;BME280;2097;51.104;7.150;2023-02-26T10:35:21;99461.31;;;1.30;89.38
4167;BME280;2097;51.104;7.150;2023-02-26T10:37:53;99462.97;;;1.34;88.94
4167;BME280;2097;51.104;7.150;2023-02-26T10:40:25;99468.09;;;1.34;88.92
4167;BME280;2097;51.104;7.150;2023-02-26T10:42:57;99316.59;;;0.44;88.32
4167;BME280;2097;51.104;7.150;2023-02-26T10:45:36;99468.97;;;1.30;89.18
4167;BME280;2097;51.104;7.150;2023-02-26T10:48:16;99280.22;;;0.22;89.08
4167;BME280;2097;51.104;7.150;2023-02-26T10:50:49;99483.34;;;1.43;89.41
4167;BME280;2097;51.104;7.150;2023-02-26T10:53:16;99482.34;;;1.55;89.12
4167;BME280;2097;51.104;7.150;2023-02-26T10:55:47;99477.97;;;1.64;89.06
4167;BME280;2097;51.104;7.150;2023-02-26T10:58:17;99422.06;;;1.33;88.36
4167;BME280;2097;51.104;7.150;2023-02-26T11:00:47;99483.00;;;1.73;88.35
4167;BME280;2097;51.104;7.150;2023-02-26T11:03:18;99481.09;;;1.87;88.22
4167;BME280;2097;51.104;7.150;2023-02-26T11:05:46;99416.75;;;1.49;87.70
4167;BME280;2097;51.104;7.150;2023-02-26T11:08:17;99484.34;;;2.01;87.31
4167;BME280;2097;51.104;7.150;2023-02-26T11:10:49;99484.25;;;2.07;87.19
4167;BME280;2097;51.104;7.150;2023-02-26T11:13:16;99485.84;;;2.17;87.03
4167;BME280;2097;51.104;7.150;2023-02-26T11:15:46;99388.31;;;1.76;86.35
4167;BME280;2097;51.104;7.150;2023-02-26T11:18:18;99486.38;;;2.38;86.25
4167;BME280;2097;51.104;7.150;2023-02-26T11:20:47;99454.22;;;2.20;85.43
4167;BME280;2097;51.104;7.150;2023-02-26T11:23:17;99491.31;;;2.50;85.31
4167;BME280;2097;51.104;7.150;2023-02-26T11:25:51;98994.47;;;-0.45;84.58
4167;BME280;2097;51.104;7.150;2023-02-26T11:28:21;99424.59;;;2.02;84.37
4167;BME280;2097;51.104;7.150;2023-02-26T11:30:48;99475.44;;;2.27;84.31
4167;BME280;2097;51.104;7.150;2023-02-26T11:33:22;99506.38;;;2.71;83.53
4167;BME280;2097;51.104;7.150;2023-02-26T11:35:49;99494.22;;;2.82;83.00
4167;BME280;2097;51.104;7.150;2023-02-26T11:38:21;99499.13;;;2.97;82.11
4167;BME280;2097;51.104;7.150;2023-02-26T11:40:53;99435.66;;;2.61;81.34
4167;BME280;2097;51.104;7.150;2023-02-26T11:43:22;99497.16;;;3.11;80.57
4167;BME280;2097;51.104;7.150;2023-02-26T11:45:53;99481.88;;;3.07;80.33
4167;BME280;2097;51.104;7.150;2023-02-26T11:48:24;99495.22;;;3.25;79.94
4167;BME280;2097;51.104;7.150;2023-02-26T11:50:55;99502.00;;;3.29;79.76
4167;BME280;2097;51.104;7.150;2023-02-26T11:53:28;99490.81;;;3.32;79.49
4167;BME280;2097;51.104;7.150;2023-02-26T11:55:59;99487.38;;;3.33;79.26
4167;BME280;2097;51.104;7.150;2023-02-26T11:58:29;99485.00;;;3.24;79.02
4167;BME280;2097;51.104;7.150;2023-02-26T12:00:58;99422.19;;;2.99;78.12
4167;BME280;2097;51.104;7.150;2023-02-26T12:03:31;99481.84;;;3.55;78.01
4167;BME280;2097;51.104;7.150;2023-02-26T12:05:59;99132.88;;;1.55;77.31
4167;BME280;2097;51.104;7.150;2023-02-26T12:08:30;99054.38;;;1.10;77.22
4167;BME280;2097;51.104;7.150;2023-02-26T12:11:43;99496.97;;;3.68;77.13
4167;BME280;2097;51.104;7.150;2023-02-26T12:14:20;99464.13;;;3.41;77.25
4167;BME280;2097;51.104;7.150;2023-02-26T12:16:59;99487.00;;;3.53;77.06
4167;BME280;2097;51.104;7.150;2023-02-26T12:19:39;99429.63;;;3.12;76.82
4167;BME280;2097;51.104;7.150;2023-02-26T12:22:41;99481.00;;;3.54;76.44
4167;BME280;2097;51.104;7.150;2023-02-26T12:25:22;99479.59;;;3.38;75.16
4167;BME280;2097;51.104;7.150;2023-02-26T12:31:08;99472.91;;;2.82;76.28
4167;BME280;2097;51.104;7.150;2023-02-26T12:33:48;99429.53;;;2.17;76.50
4167;BME280;2097;51.104;7.150;2023-02-26T12:36:40;99479.63;;;2.33;76.99
4167;BME280;2097;51.104;7.150;2023-02-26T12:39:24;99487.44;;;2.24;77.46
4167;BME280;2097;51.104;7.150;2023-02-26T12:42:05;99475.38;;;2.33;76.94
4167;BME280;2097;51.104;7.150;2023-02-26T12:44:53;99488.78;;;2.49;76.31
4167;BME280;2097;51.104;7.150;2023-02-26T12:47:39;99487.72;;;2.62;75.99
4167;BME280;2097;51.104;7.150;2023-02-26T12:50:27;99481.69;;;2.66;75.61
4167;BME280;2097;51.104;7.150;2023-02-26T12:53:22;99447.72;;;2.53;75.25
4167;BME280;2097;51.104;7.150;2023-02-26T12:56:03;99482.09;;;2.93;75.21
4167;BME280;2097;51.104;7.150;2023-02-26T12:59:01;99475.81;;;3.11;74.46
4167;BME280;2097;51.104;7.150;2023-02-26T13:01:44;99195.09;;;1.54;73.95
4167;BME280;2097;51.104;7.150;2023-02-26T13:07:30;99478.81;;;3.33;73.31
4167;BME280;2097;51.104;7.150;2023-02-26T13:10:05;99489.28;;;3.23;73.06
4167;BME280;2097;51.104;7.150;2023-02-26T13:12:41;99406.56;;;2.64;73.15
4167;BME280;2097;51.104;7.150;2023-02-26T13:15:36;99481.00;;;3.08;73.18
4167;BME280;2097;51.104;7.150;2023-02-26T13:18:10;99490.34;;;3.12;73.10
4167;BME280;2097;51.104;7.150;2023-02-26T13:20:47;99484.00;;;3.32;72.48
4167;BME280;2097;51.104;7.150;2023-02-26T13:23:22;99480.38;;;3.42;72.30
4167;BME280;2097;51.104;7.150;2023-02-26T13:25:55;99488.69;;;3.54;72.19
4167;BME280;2097;51.104;7.150;2023-02-26T13:28:36;99482.84;;;3.46;71.17
4167;BME280;2097;51.104;7.150;2023-02-26T13:31:08;99482.19;;;3.35;71.09
4167;BME280;2097;51.104;7.150;2023-02-26T13:33:35;99476.44;;;3.23;71.09
4167;BME280;2097;51.104;7.150;2023-02-26T13:36:04;99476.66;;;3.11;71.05
4167;BME280;2097;51.104;7.150;2023-02-26T13:38:38;99480.91;;;3.14;71.05
4167;BME280;2097;51.104;7.150;2023-02-26T13:41:13;99482.72;;;3.07;71.02
4167;BME280;2097;51.104;7.150;2023-02-26T13:43:51;99486.06;;;3.11;70.80
4167;BME280;2097;51.104;7.150;2023-02-26T13:46:47;99462.31;;;3.01;70.65
4167;BME280;2097;51.104;7.150;2023-02-26T13:49:20;99477.38;;;3.21;70.23
4167;BME280;2097;51.104;7.150;2023-02-26T13:51:52;99366.63;;;2.54;69.90
4167;BME280;2097;51.104;7.150;2023-02-26T13:54:33;99475.47;;;3.29;69.48